sensor_id;sensor_type;location;lat;lon;timestamp;P1;durP1;ratioP1;P2;durP2;ratioP2
5137;SDS011;53959;53.626;11.410;2022-10-15T00:00:37;10.40;;;8.03;;
5137;SDS011;53959;53.626;11.410;2022-10-15T00:03:04;17.13;;;7.73;;
5137;SDS011;53959;53.626;11.410;2022-10-15T00:05:29;13.10;;;7.97;;
5137;SDS011;53959;53.626;11.410;2022-10-15T00:07:55;9.50;;;7.73;;
5137;SDS011;53959;53.626;11.410;2022-10-15T00:10:21;10.97;;;7.90;;
5137;SDS011;53959;53.626;11.410;2022-10-15T00:12:46;9.73;;;8.10;;
5137;SDS011;53959;53.626;11.410;2022-10-15T00:15:12;11.00;;;7.33;;
5137;SDS011;53959;53.626;11.410;2022-10-15T00:17:38;10.90;;;7.30;;
5137;SDS011;53959;53.626;11.410;2022-10-15T00:20:04;10.77;;;7.37;;
5137;SDS011;53959;53.626;11.410;2022-10-15T00:22:32;11.43;;;8.20;;
5137;SDS011;53959;53.626;11.410;2022-10-15T00:24:58;12.53;;;7.90;;
5137;SDS011;53959;53.626;11.410;2022-10-15T00:27:23;12.33;;;7.53;;
5137;SDS011;53959;53.626;11.410;2022-10-15T00:29:49;14.67;;;9.30;;
5137;SDS011;53959;53.626;11.410;2022-10-15T00:32:15;9.30;;;8.00;;
5137;SDS011;53959;53.626;11.410;2022-10-15T00:34:40;15.13;;;9.10;;
5137;SDS011;53959;53.626;11.410;2022-10-15T00:37:06;11.57;;;8.27;;
5137;SDS011;53959;53.626;11.410;2022-10-15T00:39:32;18.30;;;8.87;;
5137;SDS011;53959;53.626;11.410;2022-10-15T00:41:58;12.40;;;8.60;;
5137;SDS011;53959;53.626;11.410;2022-10-15T00:47:05;11.13;;;8.77;;
5137;SDS011;53959;53.626;11.410;2022-10-15T00:49:44;9.80;;;8.80;;
5137;SDS011;53959;53.626;11.410;2022-10-15T00:52:31;13.77;;;9.33;;
5137;SDS011;53959;53.626;11.410;2022-10-15T00:55:09;15.10;;;8.90;;
5137;SDS011;53959;53.626;11.410;2022-10-15T00:57:40;10.93;;;9.37;;
5137;SDS011;53959;53.626;11.410;2022-10-15T01:00:08;17.57;;;8.97;;
5137;SDS011;53959;53.626;11.410;2022-10-15T01:02:36;12.43;;;8.50;;
5137;SDS011;53959;53.626;11.410;2022-10-15T01:05:02;14.67;;;9.10;;
5137;SDS011;53959;53.626;11.410;2022-10-15T01:07:28;11.40;;;9.27;;
5137;SDS011;53959;53.626;11.410;2022-10-15T01:09:54;18.57;;;9.60;;
5137;SDS011;53959;53.626;11.410;2022-10-15T01:12:32;13.83;;;9.57;;
5137;SDS011;53959;53.626;11.410;2022-10-15T01:18:07;14.80;;;8.90;;
5137;SDS011;53959;53.626;11.410;2022-10-15T01:21:28;17.10;;;10.10;;
5137;SDS011;53959;53.626;11.410;2022-10-15T01:26:38;11.67;;;8.70;;
5137;SDS011;53959;53.626;11.410;2022-10-15T01:29:36;13.53;;;9.33;;
5137;SDS011;53959;53.626;11.410;2022-10-15T01:32:18;11.47;;;9.20;;
5137;SDS011;53959;53.626;11.410;2022-10-15T01:35:02;14.97;;;9.77;;
5137;SDS011;53959;53.626;11.410;2022-10-15T01:37:48;15.83;;;10.57;;
5137;SDS011;53959;53.626;11.410;2022-10-15T01:40:44;17.67;;;10.10;;
5137;SDS011;53959;53.626;11.410;2022-10-15T01:43:21;13.20;;;8.93;;
5137;SDS011;53959;53.626;11.410;2022-10-15T01:46:06;15.30;;;10.40;;
5137;SDS011;53959;53.626;11.410;2022-10-15T01:48:38;13.20;;;10.17;;
5137;SDS011;53959;53.626;11.410;2022-10-15T01:51:05;13.53;;;9.80;;
5137;SDS011;53959;53.626;11.410;2022-10-15T01:53:34;12.03;;;9.77;;
5137;SDS011;53959;53.626;11.410;2022-10-15T01:56:03;13.70;;;9.13;;
5137;SDS011;53959;53.626;11.410;2022-10-15T01:58:32;15.23;;;9.97;;
5137;SDS011;53959;53.626;11.410;2022-10-15T02:01:00;11.47;;;9.67;;
5137;SDS011;53959;53.626;11.410;2022-10-15T02:03:26;16.73;;;9.80;;
5137;SDS011;53959;53.626;11.410;2022-10-15T02:05:55;17.63;;;9.53;;
5137;SDS011;53959;53.626;11.410;2022-10-15T02:11:22;14.53;;;9.90;;
5137;SDS011;53959;53.626;11.410;2022-10-15T02:13:50;21.70;;;10.27;;
5137;SDS011;53959;53.626;11.410;2022-10-15T02:21:56;16.87;;;9.63;;
5137;SDS011;53959;53.626;11.410;2022-10-15T02:24:43;14.23;;;10.30;;
5137;SDS011;53959;53.626;11.410;2022-10-15T02:27:15;20.40;;;10.00;;
5137;SDS011;53959;53.626;11.410;2022-10-15T02:29:44;15.47;;;10.33;;
5137;SDS011;53959;53.626;11.410;2022-10-15T02:32:13;15.43;;;9.97;;
5137;SDS011;53959;53.626;11.410;2022-10-15T02:34:40;16.40;;;11.13;;
5137;SDS011;53959;53.626;11.410;2022-10-15T02:37:07;14.47;;;9.70;;
5137;SDS011;53959;53.626;11.410;2022-10-15T02:39:33;12.53;;;9.97;;
5137;SDS011;53959;53.626;11.410;2022-10-15T02:41:58;16.83;;;10.50;;
5137;SDS011;53959;53.626;11.410;2022-10-15T02:44:25;18.83;;;10.30;;
5137;SDS011;53959;53.626;11.410;2022-10-15T02:46:51;19.87;;;9.63;;
5137;SDS011;53959;53.626;11.410;2022-10-15T02:49:16;12.20;;;9.20;;
5137;SDS011;53959;53.626;11.410;2022-10-15T02:51:42;14.03;;;9.87;;
5137;SDS011;53959;53.626;11.410;2022-10-15T02:54:08;17.37;;;11.27;;
5137;SDS011;53959;53.626;11.410;2022-10-15T02:56:33;13.13;;;9.50;;
5137;SDS011;53959;53.626;11.410;2022-10-15T02:58:59;19.80;;;10.10;;
5137;SDS011;53959;53.626;11.410;2022-10-15T03:01:25;15.07;;;10.07;;
5137;SDS011;53959;53.626;11.410;2022-10-15T03:03:51;17.87;;;10.47;;
5137;SDS011;53959;53.626;11.410;2022-10-15T03:06:16;14.37;;;10.70;;
5137;SDS011;53959;53.626;11.410;2022-10-15T03:08:42;16.93;;;11.30;;
5137;SDS011;53959;53.626;11.410;2022-10-15T03:11:08;17.00;;;10.20;;
5137;SDS011;53959;53.626;11.410;2022-10-15T03:13:35;16.77;;;10.40;;
5137;SDS011;53959;53.626;11.410;2022-10-15T03:16:04;12.50;;;9.47;;
5137;SDS011;53959;53.626;11.410;2022-10-15T03:18:31;16.67;;;11.93;;
5137;SDS011;53959;53.626;11.410;2022-10-15T03:20:57;17.60;;;11.10;;
5137;SDS011;53959;53.626;11.410;2022-10-15T03:23:23;15.07;;;11.50;;
5137;SDS011;53959;53.626;11.410;2022-10-15T03:25:49;20.97;;;11.80;;
5137;SDS011;53959;53.626;11.410;2022-10-15T03:28:15;16.40;;;12.00;;
5137;SDS011;53959;53.626;11.410;2022-10-15T03:30:43;13.27;;;10.73;;
5137;SDS011;53959;53.626;11.410;2022-10-15T03:33:09;18.70;;;12.37;;
5137;SDS011;53959;53.626;11.410;2022-10-15T03:35:35;16.50;;;11.20;;
5137;SDS011;53959;53.626;11.410;2022-10-15T03:38:00;16.00;;;12.20;;
5137;SDS011;53959;53.626;11.410;2022-10-15T03:40:26;22.93;;;12.80;;
5137;SDS011;53959;53.626;11.410;2022-10-15T03:42:52;16.57;;;11.73;;
5137;SDS011;53959;53.626;11.410;2022-10-15T03:45:21;15.60;;;12.27;;
5137;SDS011;53959;53.626;11.410;2022-10-15T03:47:47;26.60;;;13.50;;
5137;SDS011;53959;53.626;11.410;2022-10-15T03:50:13;26.03;;;13.47;;
5137;SDS011;53959;53.626;11.410;2022-10-15T03:52:39;23.83;;;13.50;;
5137;SDS011;53959;53.626;11.410;2022-10-15T03:55:05;22.70;;;13.93;;
5137;SDS011;53959;53.626;11.410;2022-10-15T03:57:31;16.90;;;12.60;;
5137;SDS011;53959;53.626;11.410;2022-10-15T03:59:57;24.40;;;13.60;;
5137;SDS011;53959;53.626;11.410;2022-10-15T04:02:23;29.33;;;12.77;;
5137;SDS011;53959;53.626;11.410;2022-10-15T04:04:52;22.97;;;13.50;;
5137;SDS011;53959;53.626;11.410;2022-10-15T04:07:18;22.33;;;13.77;;
5137;SDS011;53959;53.626;11.410;2022-10-15T04:09:44;22.00;;;14.30;;
5137;SDS011;53959;53.626;11.410;2022-10-15T04:12:10;30.40;;;16.17;;
5137;SDS011;53959;53.626;11.410;2022-10-15T04:14:36;26.60;;;14.83;;
5137;SDS011;53959;53.626;11.410;2022-10-15T04:17:01;30.40;;;15.00;;
5137;SDS011;53959;53.626;11.410;2022-10-15T04:19:27;37.57;;;14.80;;
5137;SDS011;53959;53.626;11.410;2022-10-15T04:21:52;29.57;;;15.53;;
5137;SDS011;53959;53.626;11.410;2022-10-15T04:24:18;27.90;;;16.13;;
5137;SDS011;53959;53.626;11.410;2022-10-15T04:26:43;23.67;;;15.90;;
5137;SDS011;53959;53.626;11.410;2022-10-15T04:29:09;27.07;;;16.53;;
5137;SDS011;53959;53.626;11.410;2022-10-15T04:31:35;26.13;;;16.17;;
5137;SDS011;53959;53.626;11.410;2022-10-15T04:34:01;27.93;;;17.40;;
5137;SDS011;53959;53.626;11.410;2022-10-15T04:36:27;34.63;;;18.87;;
5137;SDS011;53959;53.626;11.410;2022-10-15T04:38:53;28.20;;;17.50;;
5137;SDS011;53959;53.626;11.410;2022-10-15T04:41:19;33.93;;;19.40;;
5137;SDS011;53959;53.626;11.410;2022-10-15T04:43:44;36.87;;;20.87;;
5137;SDS011;53959;53.626;11.410;2022-10-15T04:46:10;30.60;;;18.40;;
5137;SDS011;53959;53.626;11.410;2022-10-15T04:48:36;28.80;;;19.07;;
5137;SDS011;53959;53.626;11.410;2022-10-15T04:51:06;34.23;;;20.40;;
5137;SDS011;53959;53.626;11.410;2022-10-15T04:53:32;28.80;;;19.30;;
5137;SDS011;53959;53.626;11.410;2022-10-15T04:55:59;31.30;;;20.23;;
5137;SDS011;53959;53.626;11.410;2022-10-15T04:58:32;36.87;;;21.13;;
5137;SDS011;53959;53.626;11.410;2022-10-15T05:01:05;38.17;;;19.70;;
5137;SDS011;53959;53.626;11.410;2022-10-15T05:03:32;33.20;;;20.30;;
5137;SDS011;53959;53.626;11.410;2022-10-15T05:06:02;36.03;;;21.83;;
5137;SDS011;53959;53.626;11.410;2022-10-15T05:08:29;44.27;;;21.97;;
5137;SDS011;53959;53.626;11.410;2022-10-15T05:11:15;36.67;;;21.73;;
5137;SDS011;53959;53.626;11.410;2022-10-15T05:13:42;41.80;;;22.73;;
5137;SDS011;53959;53.626;11.410;2022-10-15T05:16:12;38.33;;;23.30;;
5137;SDS011;53959;53.626;11.410;2022-10-15T05:18:39;40.50;;;24.20;;
5137;SDS011;53959;53.626;11.410;2022-10-15T05:21:06;38.90;;;23.80;;
5137;SDS011;53959;53.626;11.410;2022-10-15T05:23:32;40.53;;;24.40;;
5137;SDS011;53959;53.626;11.410;2022-10-15T05:26:03;42.73;;;26.07;;
5137;SDS011;53959;53.626;11.410;2022-10-15T05:28:30;40.50;;;25.43;;
5137;SDS011;53959;53.626;11.410;2022-10-15T05:30:56;43.73;;;24.80;;
5137;SDS011;53959;53.626;11.410;2022-10-15T05:33:27;43.57;;;27.30;;
5137;SDS011;53959;53.626;11.410;2022-10-15T05:35:52;46.83;;;25.60;;
5137;SDS011;53959;53.626;11.410;2022-10-15T05:38:18;37.13;;;23.50;;
5137;SDS011;53959;53.626;11.410;2022-10-15T05:40:47;44.70;;;27.10;;
5137;SDS011;53959;53.626;11.410;2022-10-15T05:43:13;40.30;;;25.37;;
5137;SDS011;53959;53.626;11.410;2022-10-15T05:45:39;42.57;;;25.40;;
5137;SDS011;53959;53.626;11.410;2022-10-15T05:48:05;45.60;;;26.07;;
5137;SDS011;53959;53.626;11.410;2022-10-15T05:50:31;43.83;;;26.07;;
5137;SDS011;53959;53.626;11.410;2022-10-15T05:52:56;46.37;;;26.80;;
5137;SDS011;53959;53.626;11.410;2022-10-15T05:55:22;42.53;;;26.90;;
5137;SDS011;53959;53.626;11.410;2022-10-15T05:57:47;43.90;;;25.50;;
5137;SDS011;53959;53.626;11.410;2022-10-15T06:00:13;47.17;;;27.93;;
5137;SDS011;53959;53.626;11.410;2022-10-15T06:02:39;46.03;;;27.90;;
5137;SDS011;53959;53.626;11.410;2022-10-15T06:05:04;47.30;;;25.40;;
5137;SDS011;53959;53.626;11.410;2022-10-15T06:07:30;48.20;;;28.70;;
5137;SDS011;53959;53.626;11.410;2022-10-15T06:09:56;45.07;;;27.40;;
5137;SDS011;53959;53.626;11.410;2022-10-15T06:12:22;48.83;;;27.30;;
5137;SDS011;53959;53.626;11.410;2022-10-15T06:14:47;45.80;;;28.70;;
5137;SDS011;53959;53.626;11.410;2022-10-15T06:17:13;51.80;;;28.00;;
5137;SDS011;53959;53.626;11.410;2022-10-15T06:19:38;52.40;;;28.00;;
5137;SDS011;53959;53.626;11.410;2022-10-15T06:22:04;54.00;;;28.07;;
5137;SDS011;53959;53.626;11.410;2022-10-15T06:24:30;52.47;;;27.27;;
5137;SDS011;53959;53.626;11.410;2022-10-15T06:26:57;55.13;;;28.00;;
5137;SDS011;53959;53.626;11.410;2022-10-15T06:29:23;55.97;;;28.27;;
5137;SDS011;53959;53.626;11.410;2022-10-15T06:31:48;47.00;;;27.80;;
5137;SDS011;53959;53.626;11.410;2022-10-15T06:34:14;53.23;;;29.53;;
5137;SDS011;53959;53.626;11.410;2022-10-15T06:36:39;49.90;;;28.07;;
5137;SDS011;53959;53.626;11.410;2022-10-15T06:39:05;50.60;;;28.33;;
5137;SDS011;53959;53.626;11.410;2022-10-15T06:41:31;51.90;;;29.20;;
5137;SDS011;53959;53.626;11.410;2022-10-15T06:43:56;54.90;;;29.30;;
5137;SDS011;53959;53.626;11.410;2022-10-15T06:46:22;53.87;;;27.60;;
5137;SDS011;53959;53.626;11.410;2022-10-15T06:48:47;54.33;;;28.70;;
5137;SDS011;53959;53.626;11.410;2022-10-15T06:51:14;59.33;;;27.53;;
5137;SDS011;53959;53.626;11.410;2022-10-15T06:53:40;58.30;;;27.63;;
5137;SDS011;53959;53.626;11.410;2022-10-15T06:56:07;50.93;;;28.00;;
5137;SDS011;53959;53.626;11.410;2022-10-15T06:58:33;54.17;;;29.77;;
5137;SDS011;53959;53.626;11.410;2022-10-15T07:01:03;48.50;;;27.07;;
5137;SDS011;53959;53.626;11.410;2022-10-15T07:03:30;56.67;;;26.70;;
5137;SDS011;53959;53.626;11.410;2022-10-15T07:05:55;54.60;;;27.50;;
5137;SDS011;53959;53.626;11.410;2022-10-15T07:08:27;44.53;;;24.80;;
5137;SDS011;53959;53.626;11.410;2022-10-15T07:10:52;42.23;;;24.63;;
5137;SDS011;53959;53.626;11.410;2022-10-15T07:13:18;51.73;;;27.40;;
5137;SDS011;53959;53.626;11.410;2022-10-15T07:15:44;43.20;;;23.30;;
5137;SDS011;53959;53.626;11.410;2022-10-15T07:18:10;47.73;;;25.57;;
5137;SDS011;53959;53.626;11.410;2022-10-15T07:20:35;44.80;;;24.20;;
5137;SDS011;53959;53.626;11.410;2022-10-15T07:23:01;44.03;;;25.47;;
5137;SDS011;53959;53.626;11.410;2022-10-15T07:25:27;39.47;;;24.23;;
5137;SDS011;53959;53.626;11.410;2022-10-15T07:27:53;42.30;;;23.73;;
5137;SDS011;53959;53.626;11.410;2022-10-15T07:30:20;46.50;;;23.87;;
5137;SDS011;53959;53.626;11.410;2022-10-15T07:32:46;45.80;;;22.20;;
5137;SDS011;53959;53.626;11.410;2022-10-15T07:35:12;41.47;;;23.30;;
5137;SDS011;53959;53.626;11.410;2022-10-15T07:37:38;39.73;;;22.03;;
5137;SDS011;53959;53.626;11.410;2022-10-15T07:42:32;36.53;;;19.20;;
5137;SDS011;53959;53.626;11.410;2022-10-15T07:44:57;36.03;;;20.37;;
5137;SDS011;53959;53.626;11.410;2022-10-15T07:47:23;36.60;;;20.83;;
5137;SDS011;53959;53.626;11.410;2022-10-15T07:49:49;40.50;;;21.73;;
5137;SDS011;53959;53.626;11.410;2022-10-15T07:52:14;42.33;;;21.50;;
5137;SDS011;53959;53.626;11.410;2022-10-15T07:54:40;37.00;;;20.90;;
5137;SDS011;53959;53.626;11.410;2022-10-15T07:57:05;36.40;;;20.73;;
5137;SDS011;53959;53.626;11.410;2022-10-15T07:59:31;43.77;;;21.80;;
5137;SDS011;53959;53.626;11.410;2022-10-15T08:01:57;37.37;;;19.50;;
5137;SDS011;53959;53.626;11.410;2022-10-15T08:04:23;27.70;;;18.93;;
5137;SDS011;53959;53.626;11.410;2022-10-15T08:06:48;28.47;;;18.90;;
5137;SDS011;53959;53.626;11.410;2022-10-15T08:09:14;31.13;;;18.97;;
5137;SDS011;53959;53.626;11.410;2022-10-15T08:11:40;31.70;;;17.40;;
5137;SDS011;53959;53.626;11.410;2022-10-15T08:14:06;27.30;;;16.90;;
5137;SDS011;53959;53.626;11.410;2022-10-15T08:16:31;33.97;;;18.30;;
5137;SDS011;53959;53.626;11.410;2022-10-15T08:18:57;31.97;;;17.10;;
5137;SDS011;53959;53.626;11.410;2022-10-15T08:21:24;30.03;;;17.57;;
5137;SDS011;53959;53.626;11.410;2022-10-15T08:23:49;26.87;;;17.30;;
5137;SDS011;53959;53.626;11.410;2022-10-15T08:26:16;27.10;;;17.67;;
5137;SDS011;53959;53.626;11.410;2022-10-15T08:28:41;29.77;;;17.70;;
5137;SDS011;53959;53.626;11.410;2022-10-15T08:31:07;27.87;;;17.50;;
5137;SDS011;53959;53.626;11.410;2022-10-15T08:33:33;29.70;;;16.83;;
5137;SDS011;53959;53.626;11.410;2022-10-15T08:35:59;20.63;;;13.90;;
5137;SDS011;53959;53.626;11.410;2022-10-15T08:38:25;23.40;;;14.33;;
5137;SDS011;53959;53.626;11.410;2022-10-15T08:40:52;18.00;;;13.03;;
5137;SDS011;53959;53.626;11.410;2022-10-15T08:43:36;24.33;;;12.63;;
5137;SDS011;53959;53.626;11.410;2022-10-15T08:46:11;24.60;;;12.63;;
5137;SDS011;53959;53.626;11.410;2022-10-15T08:48:50;20.73;;;11.23;;
5137;SDS011;53959;53.626;11.410;2022-10-15T08:51:19;18.03;;;10.13;;
5137;SDS011;53959;53.626;11.410;2022-10-15T08:53:48;15.33;;;10.50;;
5137;SDS011;53959;53.626;11.410;2022-10-15T08:56:26;30.20;;;13.83;;
5137;SDS011;53959;53.626;11.410;2022-10-15T09:04:26;17.50;;;11.33;;
5137;SDS011;53959;53.626;11.410;2022-10-15T09:13:06;22.13;;;11.40;;
5137;SDS011;53959;53.626;11.410;2022-10-15T09:15:31;21.97;;;11.10;;
5137;SDS011;53959;53.626;11.410;2022-10-15T09:17:58;18.30;;;12.60;;
5137;SDS011;53959;53.626;11.410;2022-10-15T09:20:25;18.63;;;13.27;;
5137;SDS011;53959;53.626;11.410;2022-10-15T09:22:57;29.33;;;13.40;;
5137;SDS011;53959;53.626;11.410;2022-10-15T09:25:23;27.83;;;15.07;;
5137;SDS011;53959;53.626;11.410;2022-10-15T09:27:53;20.50;;;15.10;;
5137;SDS011;53959;53.626;11.410;2022-10-15T09:30:43;26.30;;;16.97;;
5137;SDS011;53959;53.626;11.410;2022-10-15T09:43:35;24.67;;;14.30;;
5137;SDS011;53959;53.626;11.410;2022-10-15T09:46:02;23.50;;;15.13;;
5137;SDS011;53959;53.626;11.410;2022-10-15T09:48:33;22.97;;;13.70;;
5137;SDS011;53959;53.626;11.410;2022-10-15T09:51:06;21.90;;;12.40;;
5137;SDS011;53959;53.626;11.410;2022-10-15T09:54:08;22.30;;;14.43;;
5137;SDS011;53959;53.626;11.410;2022-10-15T09:56:46;23.50;;;13.60;;
5137;SDS011;53959;53.626;11.410;2022-10-15T09:59:19;24.50;;;14.47;;
5137;SDS011;53959;53.626;11.410;2022-10-15T10:01:56;24.30;;;13.77;;
5137;SDS011;53959;53.626;11.410;2022-10-15T10:04:25;19.50;;;13.23;;
5137;SDS011;53959;53.626;11.410;2022-10-15T10:06:53;18.03;;;13.23;;
5137;SDS011;53959;53.626;11.410;2022-10-15T10:09:26;25.20;;;12.77;;
5137;SDS011;53959;53.626;11.410;2022-10-15T10:11:58;23.00;;;12.53;;
5137;SDS011;53959;53.626;11.410;2022-10-15T10:14:28;16.23;;;12.33;;
5137;SDS011;53959;53.626;11.410;2022-10-15T10:17:16;25.90;;;11.77;;
5137;SDS011;53959;53.626;11.410;2022-10-15T10:19:45;15.67;;;11.87;;
5137;SDS011;53959;53.626;11.410;2022-10-15T10:22:26;13.20;;;9.90;;
5137;SDS011;53959;53.626;11.410;2022-10-15T10:24:52;22.97;;;11.50;;
5137;SDS011;53959;53.626;11.410;2022-10-15T10:27:19;21.27;;;12.37;;
5137;SDS011;53959;53.626;11.410;2022-10-15T10:29:47;15.07;;;10.00;;
5137;SDS011;53959;53.626;11.410;2022-10-15T10:32:33;17.60;;;11.30;;
5137;SDS011;53959;53.626;11.410;2022-10-15T10:34:59;23.97;;;12.10;;
5137;SDS011;53959;53.626;11.410;2022-10-15T10:37:27;25.00;;;12.67;;
5137;SDS011;53959;53.626;11.410;2022-10-15T10:39:54;18.53;;;9.93;;
5137;SDS011;53959;53.626;11.410;2022-10-15T10:42:23;17.03;;;10.67;;
5137;SDS011;53959;53.626;11.410;2022-10-15T10:44:49;17.87;;;11.50;;
5137;SDS011;53959;53.626;11.410;2022-10-15T10:49:45;15.73;;;11.03;;
5137;SDS011;53959;53.626;11.410;2022-10-15T10:52:32;18.73;;;12.10;;
5137;SDS011;53959;53.626;11.410;2022-10-15T10:55:00;18.90;;;12.00;;
5137;SDS011;53959;53.626;11.410;2022-10-15T11:00:12;17.93;;;10.77;;
5137;SDS011;53959;53.626;11.410;2022-10-15T11:02:42;16.17;;;10.00;;
5137;SDS011;53959;53.626;11.410;2022-10-15T11:05:08;15.10;;;9.00;;
5137;SDS011;53959;53.626;11.410;2022-10-15T11:07:39;15.00;;;9.03;;
5137;SDS011;53959;53.626;11.410;2022-10-15T11:13:01;21.40;;;11.10;;
5137;SDS011;53959;53.626;11.410;2022-10-15T11:15:37;18.87;;;11.37;;
5137;SDS011;53959;53.626;11.410;2022-10-15T11:21:18;21.53;;;10.80;;
5137;SDS011;53959;53.626;11.410;2022-10-15T11:24:14;15.33;;;10.73;;
5137;SDS011;53959;53.626;11.410;2022-10-15T11:35:10;17.67;;;11.10;;
5137;SDS011;53959;53.626;11.410;2022-10-15T11:38:01;16.03;;;9.93;;
5137;SDS011;53959;53.626;11.410;2022-10-15T11:45:59;14.77;;;8.77;;
5137;SDS011;53959;53.626;11.410;2022-10-15T11:56:35;11.80;;;7.27;;
5137;SDS011;53959;53.626;11.410;2022-10-15T11:59:13;9.47;;;6.10;;
5137;SDS011;53959;53.626;11.410;2022-10-15T12:02:04;13.30;;;6.40;;
5137;SDS011;53959;53.626;11.410;2022-10-15T12:05:01;7.83;;;6.20;;
5137;SDS011;53959;53.626;11.410;2022-10-15T12:07:39;7.90;;;5.60;;
5137;SDS011;53959;53.626;11.410;2022-10-15T12:12:43;9.93;;;5.80;;
5137;SDS011;53959;53.626;11.410;2022-10-15T12:15:28;15.23;;;5.03;;
5137;SDS011;53959;53.626;11.410;2022-10-15T12:18:19;7.60;;;4.57;;
5137;SDS011;53959;53.626;11.410;2022-10-15T12:20:47;6.00;;;4.63;;
5137;SDS011;53959;53.626;11.410;2022-10-15T12:26:00;5.10;;;4.17;;
5137;SDS011;53959;53.626;11.410;2022-10-15T12:28:27;7.10;;;4.80;;
5137;SDS011;53959;53.626;11.410;2022-10-15T12:30:56;12.57;;;5.27;;
5137;SDS011;53959;53.626;11.410;2022-10-15T12:35:53;6.80;;;4.23;;
5137;SDS011;53959;53.626;11.410;2022-10-15T12:38:23;5.00;;;4.33;;
5137;SDS011;53959;53.626;11.410;2022-10-15T12:40:55;11.40;;;4.77;;
5137;SDS011;53959;53.626;11.410;2022-10-15T12:43:26;9.67;;;5.03;;
5137;SDS011;53959;53.626;11.410;2022-10-15T12:45:54;5.80;;;4.00;;
5137;SDS011;53959;53.626;11.410;2022-10-15T12:48:32;7.10;;;4.77;;
5137;SDS011;53959;53.626;11.410;2022-10-15T12:53:46;7.80;;;5.07;;
5137;SDS011;53959;53.626;11.410;2022-10-15T12:58:42;6.50;;;4.83;;
5137;SDS011;53959;53.626;11.410;2022-10-15T13:03:38;7.90;;;6.00;;
5137;SDS011;53959;53.626;11.410;2022-10-15T13:08:52;11.40;;;6.03;;
5137;SDS011;53959;53.626;11.410;2022-10-15T13:11:40;8.50;;;5.80;;
5137;SDS011;53959;53.626;11.410;2022-10-15T13:14:33;13.40;;;5.83;;
5137;SDS011;53959;53.626;11.410;2022-10-15T13:17:05;5.37;;;4.80;;
5137;SDS011;53959;53.626;11.410;2022-10-15T13:19:46;8.57;;;5.80;;
5137;SDS011;53959;53.626;11.410;2022-10-15T13:22:21;10.20;;;5.80;;
5137;SDS011;53959;53.626;11.410;2022-10-15T13:24:52;6.27;;;5.70;;
5137;SDS011;53959;53.626;11.410;2022-10-15T13:30:00;9.87;;;5.07;;
5137;SDS011;53959;53.626;11.410;2022-10-15T13:32:26;5.13;;;4.03;;
5137;SDS011;53959;53.626;11.410;2022-10-15T13:34:55;11.97;;;4.20;;
5137;SDS011;53959;53.626;11.410;2022-10-15T13:37:31;8.10;;;4.40;;
5137;SDS011;53959;53.626;11.410;2022-10-15T13:39:59;7.70;;;3.40;;
5137;SDS011;53959;53.626;11.410;2022-10-15T13:42:27;4.43;;;3.73;;
5137;SDS011;53959;53.626;11.410;2022-10-15T13:47:44;8.00;;;3.80;;
5137;SDS011;53959;53.626;11.410;2022-10-15T13:50:28;6.53;;;3.50;;
5137;SDS011;53959;53.626;11.410;2022-10-15T13:53:09;6.53;;;3.77;;
5137;SDS011;53959;53.626;11.410;2022-10-15T13:55:47;3.77;;;3.40;;
5137;SDS011;53959;53.626;11.410;2022-10-15T13:58:19;5.80;;;3.17;;
5137;SDS011;53959;53.626;11.410;2022-10-15T14:01:02;4.83;;;2.90;;
5137;SDS011;53959;53.626;11.410;2022-10-15T14:03:31;4.93;;;3.00;;
5137;SDS011;53959;53.626;11.410;2022-10-15T14:06:19;8.83;;;5.40;;
5137;SDS011;53959;53.626;11.410;2022-10-15T14:08:47;5.07;;;4.43;;
5137;SDS011;53959;53.626;11.410;2022-10-15T14:11:14;5.77;;;3.53;;
5137;SDS011;53959;53.626;11.410;2022-10-15T14:13:47;8.87;;;4.60;;
5137;SDS011;53959;53.626;11.410;2022-10-15T14:16:26;5.37;;;3.77;;
5137;SDS011;53959;53.626;11.410;2022-10-15T14:18:56;6.37;;;4.10;;
5137;SDS011;53959;53.626;11.410;2022-10-15T14:21:32;9.43;;;4.70;;
5137;SDS011;53959;53.626;11.410;2022-10-15T14:24:06;7.43;;;5.13;;
5137;SDS011;53959;53.626;11.410;2022-10-15T14:26:38;5.10;;;4.60;;
5137;SDS011;53959;53.626;11.410;2022-10-15T14:29:05;6.00;;;5.03;;
5137;SDS011;53959;53.626;11.410;2022-10-15T14:31:39;10.00;;;5.47;;
5137;SDS011;53959;53.626;11.410;2022-10-15T14:36:53;6.73;;;6.00;;
5137;SDS011;53959;53.626;11.410;2022-10-15T14:39:24;14.90;;;7.03;;
5137;SDS011;53959;53.626;11.410;2022-10-15T14:41:56;8.40;;;6.70;;
5137;SDS011;53959;53.626;11.410;2022-10-15T14:44:23;7.90;;;6.13;;
5137;SDS011;53959;53.626;11.410;2022-10-15T14:46:50;10.53;;;6.90;;
5137;SDS011;53959;53.626;11.410;2022-10-15T14:51:57;11.93;;;8.30;;
5137;SDS011;53959;53.626;11.410;2022-10-15T14:54:39;13.47;;;7.43;;
5137;SDS011;53959;53.626;11.410;2022-10-15T14:57:19;10.93;;;7.80;;
5137;SDS011;53959;53.626;11.410;2022-10-15T14:59:48;10.23;;;7.53;;
5137;SDS011;53959;53.626;11.410;2022-10-15T15:02:18;11.87;;;7.70;;
5137;SDS011;53959;53.626;11.410;2022-10-15T15:04:45;8.00;;;6.50;;
5137;SDS011;53959;53.626;11.410;2022-10-15T15:07:19;8.83;;;6.73;;
5137;SDS011;53959;53.626;11.410;2022-10-15T15:09:49;10.27;;;6.80;;
5137;SDS011;53959;53.626;11.410;2022-10-15T15:12:20;9.03;;;7.03;;
5137;SDS011;53959;53.626;11.410;2022-10-15T15:14:47;7.20;;;6.50;;
5137;SDS011;53959;53.626;11.410;2022-10-15T15:17:14;7.97;;;7.17;;
5137;SDS011;53959;53.626;11.410;2022-10-15T15:19:41;11.47;;;8.60;;
5137;SDS011;53959;53.626;11.410;2022-10-15T15:22:08;15.07;;;9.77;;
5137;SDS011;53959;53.626;11.410;2022-10-15T15:24:37;13.00;;;8.80;;
5137;SDS011;53959;53.626;11.410;2022-10-15T15:27:02;12.97;;;8.80;;
5137;SDS011;53959;53.626;11.410;2022-10-15T15:29:28;14.43;;;9.50;;
5137;SDS011;53959;53.626;11.410;2022-10-15T15:31:54;21.93;;;10.70;;
5137;SDS011;53959;53.626;11.410;2022-10-15T15:34:19;27.13;;;15.10;;
5137;SDS011;53959;53.626;11.410;2022-10-15T15:36:47;14.83;;;11.13;;
5137;SDS011;53959;53.626;11.410;2022-10-15T15:39:13;13.63;;;10.77;;
5137;SDS011;53959;53.626;11.410;2022-10-15T15:41:39;22.43;;;13.93;;
5137;SDS011;53959;53.626;11.410;2022-10-15T15:44:04;20.03;;;14.50;;
5137;SDS011;53959;53.626;11.410;2022-10-15T15:46:31;20.33;;;13.60;;
5137;SDS011;53959;53.626;11.410;2022-10-15T15:48:57;17.37;;;13.30;;
5137;SDS011;53959;53.626;11.410;2022-10-15T15:51:27;21.00;;;14.23;;
5137;SDS011;53959;53.626;11.410;2022-10-15T15:53:54;20.33;;;14.43;;
5137;SDS011;53959;53.626;11.410;2022-10-15T15:56:20;24.50;;;15.70;;
5137;SDS011;53959;53.626;11.410;2022-10-15T15:58:47;22.87;;;15.73;;
5137;SDS011;53959;53.626;11.410;2022-10-15T16:01:14;24.00;;;15.70;;
5137;SDS011;53959;53.626;11.410;2022-10-15T16:03:40;28.43;;;16.07;;
5137;SDS011;53959;53.626;11.410;2022-10-15T16:06:06;29.07;;;18.03;;
5137;SDS011;53959;53.626;11.410;2022-10-15T16:08:33;21.93;;;16.87;;
5137;SDS011;53959;53.626;11.410;2022-10-15T16:11:02;24.00;;;17.13;;
5137;SDS011;53959;53.626;11.410;2022-10-15T16:13:29;30.90;;;16.67;;
5137;SDS011;53959;53.626;11.410;2022-10-15T16:15:55;25.50;;;16.97;;
5137;SDS011;53959;53.626;11.410;2022-10-15T16:18:20;27.83;;;17.37;;
5137;SDS011;53959;53.626;11.410;2022-10-15T16:20:46;24.40;;;17.17;;
5137;SDS011;53959;53.626;11.410;2022-10-15T16:23:12;23.50;;;18.13;;
5137;SDS011;53959;53.626;11.410;2022-10-15T16:25:38;33.60;;;20.23;;